sensor_id;sensor_type;location;lat;lon;timestamp;temperature;humidity
64689;DHT22;62504;46.070;14.492;2023-09-30T00:01:01;16.00;99.90
64689;DHT22;62504;46.070;14.492;2023-09-30T00:03:27;15.90;99.90
64689;DHT22;62504;46.070;14.492;2023-09-30T00:05:53;15.90;99.90
64689;DHT22;62504;46.070;14.492;2023-09-30T00:08:19;15.90;99.90
64689;DHT22;62504;46.070;14.492;2023-09-30T00:10:45;15.80;99.90
64689;DHT22;62504;46.070;14.492;2023-09-30T00:13:12;15.80;99.90
64689;DHT22;62504;46.070;14.492;2023-09-30T00:15:37;15.80;99.90
64689;DHT22;62504;46.070;14.492;2023-09-30T00:18:03;15.80;99.90
64689;DHT22;62504;46.070;14.492;2023-09-30T00:20:29;15.80;99.90
64689;DHT22;62504;46.070;14.492;2023-09-30T00:22:55;15.80;99.90
64689;DHT22;62504;46.070;14.492;2023-09-30T00:25:20;15.70;99.90
64689;DHT22;62504;46.070;14.492;2023-09-30T00:27:47;15.80;99.90
64689;DHT22;62504;46.070;14.492;2023-09-30T00:30:13;15.70;99.90
64689;DHT22;62504;46.070;14.492;2023-09-30T00:32:38;15.70;99.90
64689;DHT22;62504;46.070;14.492;2023-09-30T00:35:05;15.70;99.90
64689;DHT22;62504;46.070;14.492;2023-09-30T00:37:40;15.70;99.90
64689;DHT22;62504;46.070;14.492;2023-09-30T00:40:07;15.70;99.90
64689;DHT22;62504;46.070;14.492;2023-09-30T00:42:37;15.60;99.90
64689;DHT22;62504;46.070;14.492;2023-09-30T00:45:03;15.60;99.90
64689;DHT22;62504;46.070;14.492;2023-09-30T00:47:30;15.60;99.90
64689;DHT22;62504;46.070;14.492;2023-09-30T00:49:56;15.60;99.90
64689;DHT22;62504;46.070;14.492;2023-09-30T00:52:22;15.60;99.90
64689;DHT22;62504;46.070;14.492;2023-09-30T00:54:48;15.60;99.90
64689;DHT22;62504;46.070;14.492;2023-09-30T00:57:16;15.50;99.90
64689;DHT22;62504;46.070;14.492;2023-09-30T00:59:44;15.50;99.90
64689;DHT22;62504;46.070;14.492;2023-09-30T01:02:09;15.50;99.90
64689;DHT22;62504;46.070;14.492;2023-09-30T01:04:35;15.40;99.90
64689;DHT22;62504;46.070;14.492;2023-09-30T01:07:02;15.50;99.90
64689;DHT22;62504;46.070;14.492;2023-09-30T01:09:27;15.40;99.90
64689;DHT22;62504;46.070;14.492;2023-09-30T01:11:53;15.40;99.90
64689;DHT22;62504;46.070;14.492;2023-09-30T01:14:33;15.40;99.90
64689;DHT22;62504;46.070;14.492;2023-09-30T01:17:06;15.40;99.90
64689;DHT22;62504;46.070;14.492;2023-09-30T01:19:35;15.40;99.90
64689;DHT22;62504;46.070;14.492;2023-09-30T01:22:01;15.40;99.90
64689;DHT22;62504;46.070;14.492;2023-09-30T01:24:37;15.50;99.90
64689;DHT22;62504;46.070;14.492;2023-09-30T01:27:03;15.40;99.90
64689;DHT22;62504;46.070;14.492;2023-09-30T01:29:29;15.40;99.90
64689;DHT22;62504;46.070;14.492;2023-09-30T01:31:54;15.50;99.90
64689;DHT22;62504;46.070;14.492;2023-09-30T01:34:21;15.50;99.90
64689;DHT22;62504;46.070;14.492;2023-09-30T01:36:46;15.50;99.90
64689;DHT22;62504;46.070;14.492;2023-09-30T01:39:13;15.50;99.90
64689;DHT22;62504;46.070;14.492;2023-09-30T01:41:39;15.50;99.90
64689;DHT22;62504;46.070;14.492;2023-09-30T01:44:06;15.40;99.90
64689;DHT22;62504;46.070;14.492;2023-09-30T01:46:31;15.40;99.90
64689;DHT22;62504;46.070;14.492;2023-09-30T01:48:57;15.40;99.90
64689;DHT22;62504;46.070;14.492;2023-09-30T01:51:23;15.40;99.90
64689;DHT22;62504;46.070;14.492;2023-09-30T01:53:49;15.40;99.90
64689;DHT22;62504;46.070;14.492;2023-09-30T01:56:15;15.30;99.90
64689;DHT22;62504;46.070;14.492;2023-09-30T01:58:41;15.30;99.90
64689;DHT22;62504;46.070;14.492;2023-09-30T02:01:07;15.30;99.90
64689;DHT22;62504;46.070;14.492;2023-09-30T02:03:33;15.30;99.90
64689;DHT22;62504;46.070;14.492;2023-09-30T02:05:59;15.30;99.90
64689;DHT22;62504;46.070;14.492;2023-09-30T02:08:25;15.20;99.90
64689;DHT22;62504;46.070;14.492;2023-09-30T02:10:51;15.20;99.90
64689;DHT22;62504;46.070;14.492;2023-09-30T02:13:18;15.20;99.90
64689;DHT22;62504;46.070;14.492;2023-09-30T02:15:44;15.20;99.90
64689;DHT22;62504;46.070;14.492;2023-09-30T02:18:09;15.20;99.90
64689;DHT22;62504;46.070;14.492;2023-09-30T02:20:36;15.30;99.90
64689;DHT22;62504;46.070;14.492;2023-09-30T02:23:05;15.30;99.90
64689;DHT22;62504;46.070;14.492;2023-09-30T02:25:31;15.30;99.90
64689;DHT22;62504;46.070;14.492;2023-09-30T02:27:57;15.30;99.90
64689;DHT22;62504;46.070;14.492;2023-09-30T02:30:23;15.30;99.90
64689;DHT22;62504;46.070;14.492;2023-09-30T02:32:49;15.30;99.90
64689;DHT22;62504;46.070;14.492;2023-09-30T02:35:15;15.40;99.90
64689;DHT22;62504;46.070;14.492;2023-09-30T02:37:41;15.30;99.90
64689;DHT22;62504;46.070;14.492;2023-09-30T02:40:07;15.30;99.90
64689;DHT22;62504;46.070;14.492;2023-09-30T02:42:39;15.20;99.90
64689;DHT22;62504;46.070;14.492;2023-09-30T02:45:05;15.20;99.90
64689;DHT22;62504;46.070;14.492;2023-09-30T02:47:32;15.20;99.90
64689;DHT22;62504;46.070;14.492;2023-09-30T02:49:58;15.20;99.90
64689;DHT22;62504;46.070;14.492;2023-09-30T02:52:24;15.20;99.90
64689;DHT22;62504;46.070;14.492;2023-09-30T02:54:50;15.20;99.90
64689;DHT22;62504;46.070;14.492;2023-09-30T02:57:15;15.20;99.90
64689;DHT22;62504;46.070;14.492;2023-09-30T02:59:41;15.20;99.90
64689;DHT22;62504;46.070;14.492;2023-09-30T03:02:07;15.20;99.90
64689;DHT22;62504;46.070;14.492;2023-09-30T03:04:33;15.20;99.90
64689;DHT22;62504;46.070;14.492;2023-09-30T03:06:59;15.20;99.90
64689;DHT22;62504;46.070;14.492;2023-09-30T03:09:25;15.20;99.90
64689;DHT22;62504;46.070;14.492;2023-09-30T03:11:51;15.20;99.90
64689;DHT22;62504;46.070;14.492;2023-09-30T03:14:17;15.20;99.90
64689;DHT22;62504;46.070;14.492;2023-09-30T03:16:43;15.20;99.90
64689;DHT22;62504;46.070;14.492;2023-09-30T03:19:10;15.20;99.90
64689;DHT22;62504;46.070;14.492;2023-09-30T03:21:37;15.20;99.90
64689;DHT22;62504;46.070;14.492;2023-09-30T03:24:06;15.20;99.90
64689;DHT22;62504;46.070;14.492;2023-09-30T03:26:33;15.10;99.90
64689;DHT22;62504;46.070;14.492;2023-09-30T03:28:59;15.10;99.90
64689;DHT22;62504;46.070;14.492;2023-09-30T03:31:25;15.10;99.90
64689;DHT22;62504;46.070;14.492;2023-09-30T03:33:51;15.10;99.90
64689;DHT22;62504;46.070;14.492;2023-09-30T03:36:20;15.00;99.90
64689;DHT22;62504;46.070;14.492;2023-09-30T03:38:46;15.10;99.90
64689;DHT22;62504;46.070;14.492;2023-09-30T03:41:12;15.00;99.90
64689;DHT22;62504;46.070;14.492;2023-09-30T03:43:39;15.00;99.90
64689;DHT22;62504;46.070;14.492;2023-09-30T03:46:07;15.00;99.90
64689;DHT22;62504;46.070;14.492;2023-09-30T03:48:33;15.00;99.90
64689;DHT22;62504;46.070;14.492;2023-09-30T03:51:14;14.90;99.90
64689;DHT22;62504;46.070;14.492;2023-09-30T03:53:44;14.90;99.90
64689;DHT22;62504;46.070;14.492;2023-09-30T03:56:10;14.90;99.90
64689;DHT22;62504;46.070;14.492;2023-09-30T03:58:42;14.90;99.90
64689;DHT22;62504;46.070;14.492;2023-09-30T04:01:10;14.90;99.90
64689;DHT22;62504;46.070;14.492;2023-09-30T04:03:39;14.90;99.90
64689;DHT22;62504;46.070;14.492;2023-09-30T04:06:05;14.90;99.90
64689;DHT22;62504;46.070;14.492;2023-09-30T04:08:34;14.90;99.90
64689;DHT22;62504;46.070;14.492;2023-09-30T04:11:00;14.90;99.90
64689;DHT22;62504;46.070;14.492;2023-09-30T04:13:26;14.90;99.90
64689;DHT22;62504;46.070;14.492;2023-09-30T04:15:52;14.90;99.90
64689;DHT22;62504;46.070;14.492;2023-09-30T04:18:18;14.90;99.90
64689;DHT22;62504;46.070;14.492;2023-09-30T04:20:46;14.90;99.90
64689;DHT22;62504;46.070;14.492;2023-09-30T04:23:12;14.80;99.90
64689;DHT22;62504;46.070;14.492;2023-09-30T04:25:38;14.80;99.90
64689;DHT22;62504;46.070;14.492;2023-09-30T04:28:05;14.80;99.90
64689;DHT22;62504;46.070;14.492;2023-09-30T04:30:31;14.80;99.90
64689;DHT22;62504;46.070;14.492;2023-09-30T04:32:59;14.80;99.90
64689;DHT22;62504;46.070;14.492;2023-09-30T04:35:24;14.80;99.90
64689;DHT22;62504;46.070;14.492;2023-09-30T04:37:51;14.80;99.90
64689;DHT22;62504;46.070;14.492;2023-09-30T04:40:16;14.80;99.90
64689;DHT22;62504;46.070;14.492;2023-09-30T04:42:46;14.80;99.90
64689;DHT22;62504;46.070;14.492;2023-09-30T04:45:13;14.80;99.90
64689;DHT22;62504;46.070;14.492;2023-09-30T04:47:39;14.80;99.90
64689;DHT22;62504;46.070;14.492;2023-09-30T04:50:08;14.80;99.90
64689;DHT22;62504;46.070;14.492;2023-09-30T04:52:36;14.70;99.90
64689;DHT22;62504;46.070;14.492;2023-09-30T04:55:03;14.50;99.90
64689;DHT22;62504;46.070;14.492;2023-09-30T04:57:31;14.50;99.90
64689;DHT22;62504;46.070;14.492;2023-09-30T04:59:57;14.60;99.90
64689;DHT22;62504;46.070;14.492;2023-09-30T05:02:24;14.70;99.90
64689;DHT22;62504;46.070;14.492;2023-09-30T05:04:50;14.70;99.90
64689;DHT22;62504;46.070;14.492;2023-09-30T05:07:16;14.70;99.90
64689;DHT22;62504;46.070;14.492;2023-09-30T05:09:41;14.70;99.90
64689;DHT22;62504;46.070;14.492;2023-09-30T05:12:08;14.70;99.90
64689;DHT22;62504;46.070;14.492;2023-09-30T05:14:35;14.70;99.90
64689;DHT22;62504;46.070;14.492;2023-09-30T05:17:02;14.70;99.90
64689;DHT22;62504;46.070;14.492;2023-09-30T05:19:30;14.70;99.90
64689;DHT22;62504;46.070;14.492;2023-09-30T05:21:57;14.80;99.90
64689;DHT22;62504;46.070;14.492;2023-09-30T05:24:23;14.80;99.90
64689;DHT22;62504;46.070;14.492;2023-09-30T05:26:48;14.80;99.90
64689;DHT22;62504;46.070;14.492;2023-09-30T05:29:14;14.70;99.90
64689;DHT22;62504;46.070;14.492;2023-09-30T05:31:40;14.80;99.90
64689;DHT22;62504;46.070;14.492;2023-09-30T05:34:05;14.80;99.90
64689;DHT22;62504;46.070;14.492;2023-09-30T05:36:31;14.80;99.90
64689;DHT22;62504;46.070;14.492;2023-09-30T05:38:57;14.80;99.90
64689;DHT22;62504;46.070;14.492;2023-09-30T05:41:23;14.90;99.90
64689;DHT22;62504;46.070;14.492;2023-09-30T05:43:48;14.90;99.90
64689;DHT22;62504;46.070;14.492;2023-09-30T05:46:15;14.90;99.90
64689;DHT22;62504;46.070;14.492;2023-09-30T05:48:41;15.00;99.90
64689;DHT22;62504;46.070;14.492;2023-09-30T05:51:07;15.00;99.90
64689;DHT22;62504;46.070;14.492;2023-09-30T05:53:33;14.90;99.90
64689;DHT22;62504;46.070;14.492;2023-09-30T05:55:59;14.90;99.90
64689;DHT22;62504;46.070;14.492;2023-09-30T05:58:25;14.90;99.90
64689;DHT22;62504;46.070;14.492;2023-09-30T06:00:52;15.00;99.90
64689;DHT22;62504;46.070;14.492;2023-09-30T06:03:18;15.00;99.90
64689;DHT22;62504;46.070;14.492;2023-09-30T06:05:46;15.00;99.90
64689;DHT22;62504;46.070;14.492;2023-09-30T06:08:12;15.10;99.90
64689;DHT22;62504;46.070;14.492;2023-09-30T06:10:43;15.10;99.90
64689;DHT22;62504;46.070;14.492;2023-09-30T06:13:10;15.20;99.90
64689;DHT22;62504;46.070;14.492;2023-09-30T06:15:42;15.20;99.90
64689;DHT22;62504;46.070;14.492;2023-09-30T06:18:09;15.20;99.90
64689;DHT22;62504;46.070;14.492;2023-09-30T06:20:37;15.20;99.90
64689;DHT22;62504;46.070;14.492;2023-09-30T06:23:03;15.40;99.90
64689;DHT22;62504;46.070;14.492;2023-09-30T06:25:29;15.60;99.90
64689;DHT22;62504;46.070;14.492;2023-09-30T06:27:56;15.80;99.90
64689;DHT22;62504;46.070;14.492;2023-09-30T06:30:22;15.90;99.90
64689;DHT22;62504;46.070;14.492;2023-09-30T06:32:57;16.10;99.90
64689;DHT22;62504;46.070;14.492;2023-09-30T06:35:23;16.10;99.90
64689;DHT22;62504;46.070;14.492;2023-09-30T06:37:49;16.10;99.90
64689;DHT22;62504;46.070;14.492;2023-09-30T06:40:15;16.10;99.90
64689;DHT22;62504;46.070;14.492;2023-09-30T06:42:40;16.10;99.90
64689;DHT22;62504;46.070;14.492;2023-09-30T06:45:08;16.20;99.90
64689;DHT22;62504;46.070;14.492;2023-09-30T06:47:36;16.20;99.90
64689;DHT22;62504;46.070;14.492;2023-09-30T06:50:03;16.30;99.90
64689;DHT22;62504;46.070;14.492;2023-09-30T06:52:43;16.30;99.90
64689;DHT22;62504;46.070;14.492;2023-09-30T06:55:11;16.20;99.90
64689;DHT22;62504;46.070;14.492;2023-09-30T06:57:41;16.20;99.90
64689;DHT22;62504;46.070;14.492;2023-09-30T07:00:11;16.20;99.90
64689;DHT22;62504;46.070;14.492;2023-09-30T07:02:38;16.30;99.90
64689;DHT22;62504;46.070;14.492;2023-09-30T07:05:11;16.30;99.90
64689;DHT22;62504;46.070;14.492;2023-09-30T07:07:38;16.30;99.90
64689;DHT22;62504;46.070;14.492;2023-09-30T07:10:05;16.40;99.90
64689;DHT22;62504;46.070;14.492;2023-09-30T07:12:31;16.40;99.90
64689;DHT22;62504;46.070;14.492;2023-09-30T07:15:01;16.40;99.90
64689;DHT22;62504;46.070;14.492;2023-09-30T07:17:27;16.40;99.90
64689;DHT22;62504;46.070;14.492;2023-09-30T07:19:53;16.40;99.90
64689;DHT22;62504;46.070;14.492;2023-09-30T07:22:19;16.30;99.90
64689;DHT22;62504;46.070;14.492;2023-09-30T07:24:44;16.50;99.90
64689;DHT22;62504;46.070;14.492;2023-09-30T07:27:10;16.70;99.90
64689;DHT22;62504;46.070;14.492;2023-09-30T07:29:36;17.00;99.90
64689;DHT22;62504;46.070;14.492;2023-09-30T07:32:01;17.30;99.90
64689;DHT22;62504;46.070;14.492;2023-09-30T07:34:27;17.50;99.90
64689;DHT22;62504;46.070;14.492;2023-09-30T07:36:52;17.50;99.90
64689;DHT22;62504;46.070;14.492;2023-09-30T07:39:18;17.40;99.90
64689;DHT22;62504;46.070;14.492;2023-09-30T07:41:44;17.30;99.90
64689;DHT22;62504;46.070;14.492;2023-09-30T07:44:09;17.30;99.90
64689;DHT22;62504;46.070;14.492;2023-09-30T07:46:36;17.30;99.90
64689;DHT22;62504;46.070;14.492;2023-09-30T07:49:04;17.30;99.90
64689;DHT22;62504;46.070;14.492;2023-09-30T07:51:32;17.30;99.90
64689;DHT22;62504;46.070;14.492;2023-09-30T07:53:57;17.40;99.90
64689;DHT22;62504;46.070;14.492;2023-09-30T07:56:23;17.70;99.90
64689;DHT22;62504;46.070;14.492;2023-09-30T07:58:49;17.90;99.90
64689;DHT22;62504;46.070;14.492;2023-09-30T08:01:15;18.00;99.90
64689;DHT22;62504;46.070;14.492;2023-09-30T08:03:41;17.90;99.90
64689;DHT22;62504;46.070;14.492;2023-09-30T08:06:09;17.90;99.90
64689;DHT22;62504;46.070;14.492;2023-09-30T08:08:36;17.90;99.90
64689;DHT22;62504;46.070;14.492;2023-09-30T08:11:02;17.80;99.90
64689;DHT22;62504;46.070;14.492;2023-09-30T08:13:27;17.80;99.90
64689;DHT22;62504;46.070;14.492;2023-09-30T08:15:55;17.60;99.90
64689;DHT22;62504;46.070;14.492;2023-09-30T08:18:21;17.50;99.90
64689;DHT22;62504;46.070;14.492;2023-09-30T08:20:47;17.50;99.90
64689;DHT22;62504;46.070;14.492;2023-09-30T08:23:12;17.40;99.90
64689;DHT22;62504;46.070;14.492;2023-09-30T08:25:38;17.40;99.90
64689;DHT22;62504;46.070;14.492;2023-09-30T08:28:04;17.30;99.90
64689;DHT22;62504;46.070;14.492;2023-09-30T08:30:30;17.30;99.90
64689;DHT22;62504;46.070;14.492;2023-09-30T08:32:58;17.20;99.90
64689;DHT22;62504;46.070;14.492;2023-09-30T08:35:24;17.20;99.90
64689;DHT22;62504;46.070;14.492;2023-09-30T08:37:50;17.30;99.90
64689;DHT22;62504;46.070;14.492;2023-09-30T08:40:20;17.40;99.90
64689;DHT22;62504;46.070;14.492;2023-09-30T08:42:49;17.40;99.90
64689;DHT22;62504;46.070;14.492;2023-09-30T08:45:16;17.30;99.90
64689;DHT22;62504;46.070;14.492;2023-09-30T08:47:43;17.30;99.90
64689;DHT22;62504;46.070;14.492;2023-09-30T08:50:09;17.30;99.90
64689;DHT22;62504;46.070;14.492;2023-09-30T08:52:38;17.30;99.90
64689;DHT22;62504;46.070;14.492;2023-09-30T08:55:04;17.40;99.90
64689;DHT22;62504;46.070;14.492;2023-09-30T08:57:30;17.40;99.90
64689;DHT22;62504;46.070;14.492;2023-09-30T08:59:57;17.50;99.90
64689;DHT22;62504;46.070;14.492;2023-09-30T09:02:23;17.50;99.90
64689;DHT22;62504;46.070;14.492;2023-09-30T09:04:49;17.50;99.90
64689;DHT22;62504;46.070;14.492;2023-09-30T09:07:15;17.50;99.90
64689;DHT22;62504;46.070;14.492;2023-09-30T09:09:41;17.60;99.90
64689;DHT22;62504;46.070;14.492;2023-09-30T09:12:17;17.60;99.90
64689;DHT22;62504;46.070;14.492;2023-09-30T09:14:43;17.60;99.90
64689;DHT22;62504;46.070;14.492;2023-09-30T09:17:11;17.50;99.90
64689;DHT22;62504;46.070;14.492;2023-09-30T09:19:37;17.50;99.90
64689;DHT22;62504;46.070;14.492;2023-09-30T09:22:03;17.60;99.90
64689;DHT22;62504;46.070;14.492;2023-09-30T09:24:34;17.50;99.90
64689;DHT22;62504;46.070;14.492;2023-09-30T09:27:10;17.60;99.90
64689;DHT22;62504;46.070;14.492;2023-09-30T09:29:38;17.60;99.90
64689;DHT22;62504;46.070;14.492;2023-09-30T09:34:37;17.80;99.90
64689;DHT22;62504;46.070;14.492;2023-09-30T09:37:19;17.90;99.90
64689;DHT22;62504;46.070;14.492;2023-09-30T09:39:55;18.10;99.90
64689;DHT22;62504;46.070;14.492;2023-09-30T09:42:32;18.20;99.90
64689;DHT22;62504;46.070;14.492;2023-09-30T09:45:03;18.40;99.90
64689;DHT22;62504;46.070;14.492;2023-09-30T09:47:32;18.50;99.90
64689;DHT22;62504;46.070;14.492;2023-09-30T09:49:59;18.70;99.90
64689;DHT22;62504;46.070;14.492;2023-09-30T09:52:25;18.90;99.90
64689;DHT22;62504;46.070;14.492;2023-09-30T09:54:52;18.90;99.90
64689;DHT22;62504;46.070;14.492;2023-09-30T09:57:19;19.00;99.90
64689;DHT22;62504;46.070;14.492;2023-09-30T09:59:46;19.10;99.90
64689;DHT22;62504;46.070;14.492;2023-09-30T10:02:15;19.20;99.90
64689;DHT22;62504;46.070;14.492;2023-09-30T10:04:47;19.30;99.90
64689;DHT22;62504;46.070;14.492;2023-09-30T10:07:26;19.30;99.90
64689;DHT22;62504;46.070;14.492;2023-09-30T10:09:53;19.40;99.90
64689;DHT22;62504;46.070;14.492;2023-09-30T10:12:25;19.50;99.90
64689;DHT22;62504;46.070;14.492;2023-09-30T10:14:52;19.70;99.90
64689;DHT22;62504;46.070;14.492;2023-09-30T10:17:18;19.70;99.90
64689;DHT22;62504;46.070;14.492;2023-09-30T10:20:04;19.70;99.90
64689;DHT22;62504;46.070;14.492;2023-09-30T10:22:33;19.60;99.90
64689;DHT22;62504;46.070;14.492;2023-09-30T10:25:00;19.40;99.90
64689;DHT22;62504;46.070;14.492;2023-09-30T10:29:57;19.40;99.90
64689;DHT22;62504;46.070;14.492;2023-09-30T10:33:29;19.50;99.90
64689;DHT22;62504;46.070;14.492;2023-09-30T10:40:51;19.60;99.90
64689;DHT22;62504;46.070;14.492;2023-09-30T10:45:55;19.80;99.90
64689;DHT22;62504;46.070;14.492;2023-09-30T10:51:18;19.70;99.90
64689;DHT22;62504;46.070;14.492;2023-09-30T10:53:55;19.80;99.90
64689;DHT22;62504;46.070;14.492;2023-09-30T10:56:32;19.90;99.90
64689;DHT22;62504;46.070;14.492;2023-09-30T10:58:59;19.90;99.90
64689;DHT22;62504;46.070;14.492;2023-09-30T11:01:33;19.90;99.90
64689;DHT22;62504;46.070;14.492;2023-09-30T11:04:01;19.90;99.90
64689;DHT22;62504;46.070;14.492;2023-09-30T11:06:30;19.90;99.90
64689;DHT22;62504;46.070;14.492;2023-09-30T11:08:57;19.90;99.90
64689;DHT22;62504;46.070;14.492;2023-09-30T11:11:52;19.80;99.90
64689;DHT22;62504;46.070;14.492;2023-09-30T11:14:26;19.70;99.90
64689;DHT22;62504;46.070;14.492;2023-09-30T11:16:54;19.70;99.90
64689;DHT22;62504;46.070;14.492;2023-09-30T11:19:21;19.70;99.90
64689;DHT22;62504;46.070;14.492;2023-09-30T11:21:52;19.70;99.90
64689;DHT22;62504;46.070;14.492;2023-09-30T11:24:18;19.70;99.90
64689;DHT22;62504;46.070;14.492;2023-09-30T11:26:47;19.70;99.90
64689;DHT22;62504;46.070;14.492;2023-09-30T11:29:14;19.70;99.90
64689;DHT22;62504;46.070;14.492;2023-09-30T11:31:45;19.70;99.90
64689;DHT22;62504;46.070;14.492;2023-09-30T11:34:13;19.70;99.90
64689;DHT22;62504;46.070;14.492;2023-09-30T11:36:41;19.70;99.90
64689;DHT22;62504;46.070;14.492;2023-09-30T11:39:08;19.80;99.90
64689;DHT22;62504;46.070;14.492;2023-09-30T11:44:01;20.00;99.90
64689;DHT22;62504;46.070;14.492;2023-09-30T11:46:28;20.00;99.90
64689;DHT22;62504;46.070;14.492;2023-09-30T11:48:59;20.00;99.90
64689;DHT22;62504;46.070;14.492;2023-09-30T11:51:26;20.00;99.90
64689;DHT22;62504;46.070;14.492;2023-09-30T11:53:53;20.00;99.90
64689;DHT22;62504;46.070;14.492;2023-09-30T11:56:19;20.00;99.90
64689;DHT22;62504;46.070;14.492;2023-09-30T11:58:45;20.00;99.90
64689;DHT22;62504;46.070;14.492;2023-09-30T12:01:16;20.10;99.90
64689;DHT22;62504;46.070;14.492;2023-09-30T12:03:41;20.20;99.90
64689;DHT22;62504;46.070;14.492;2023-09-30T12:06:08;20.20;99.90
64689;DHT22;62504;46.070;14.492;2023-09-30T12:08:34;20.30;99.90
64689;DHT22;62504;46.070;14.492;2023-09-30T12:10:59;20.30;99.90
64689;DHT22;62504;46.070;14.492;2023-09-30T12:13:25;20.40;99.90
64689;DHT22;62504;46.070;14.492;2023-09-30T12:15:51;20.30;99.90
64689;DHT22;62504;46.070;14.492;2023-09-30T12:18:19;20.40;99.90
64689;DHT22;62504;46.070;14.492;2023-09-30T12:20:49;20.50;99.90
64689;DHT22;62504;46.070;14.492;2023-09-30T12:23:15;20.50;99.90
64689;DHT22;62504;46.070;14.492;2023-09-30T12:25:44;20.60;99.90
64689;DHT22;62504;46.070;14.492;2023-09-30T12:28:09;20.70;99.90
64689;DHT22;62504;46.070;14.492;2023-09-30T12:30:35;20.70;99.90
64689;DHT22;62504;46.070;14.492;2023-09-30T12:33:01;20.80;99.90
64689;DHT22;62504;46.070;14.492;2023-09-30T12:35:27;20.90;99.90
64689;DHT22;62504;46.070;14.492;2023-09-30T12:37:52;20.90;99.90
64689;DHT22;62504;46.070;14.492;2023-09-30T12:40:18;20.90;99.90
64689;DHT22;62504;46.070;14.492;2023-09-30T12:42:44;21.00;99.90
64689;DHT22;62504;46.070;14.492;2023-09-30T12:45:11;20.90;99.90
64689;DHT22;62504;46.070;14.492;2023-09-30T12:47:37;20.90;99.90
64689;DHT22;62504;46.070;14.492;2023-09-30T12:50:04;21.00;99.90
64689;DHT22;62504;46.070;14.492;2023-09-30T12:52:30;21.00;99.90
64689;DHT22;62504;46.070;14.492;2023-09-30T12:54:57;21.10;99.90
64689;DHT22;62504;46.070;14.492;2023-09-30T12:57:23;21.00;99.90
64689;DHT22;62504;46.070;14.492;2023-09-30T12:59:49;21.00;99.90
64689;DHT22;62504;46.070;14.492;2023-09-30T13:02:15;21.00;99.90
64689;DHT22;62504;46.070;14.492;2023-09-30T13:04:44;21.10;99.90
64689;DHT22;62504;46.070;14.492;2023-09-30T13:07:10;21.10;99.90
64689;DHT22;62504;46.070;14.492;2023-09-30T13:09:40;21.10;99.90
64689;DHT22;62504;46.070;14.492;2023-09-30T13:12:06;21.10;99.90
64689;DHT22;62504;46.070;14.492;2023-09-30T13:14:32;21.10;99.90
64689;DHT22;62504;46.070;14.492;2023-09-30T13:16:58;21.20;99.90
64689;DHT22;62504;46.070;14.492;2023-09-30T13:19:24;21.30;99.90
64689;DHT22;62504;46.070;14.492;2023-09-30T13:21:50;21.30;99.90
64689;DHT22;62504;46.070;14.492;2023-09-30T13:24:16;21.30;99.90
64689;DHT22;62504;46.070;14.492;2023-09-30T13:26:42;21.30;99.90
64689;DHT22;62504;46.070;14.492;2023-09-30T13:29:07;21.30;99.90
64689;DHT22;62504;46.070;14.492;2023-09-30T13:31:35;21.40;99.90
64689;DHT22;62504;46.070;14.492;2023-09-30T13:34:05;21.40;99.90
64689;DHT22;62504;46.070;14.492;2023-09-30T13:36:30;21.50;99.90
64689;DHT22;62504;46.070;14.492;2023-09-30T13:38:56;21.50;99.90
64689;DHT22;62504;46.070;14.492;2023-09-30T13:41:22;21.50;99.90
64689;DHT22;62504;46.070;14.492;2023-09-30T13:43:48;21.50;99.90
64689;DHT22;62504;46.070;14.492;2023-09-30T13:46:13;21.50;99.90
64689;DHT22;62504;46.070;14.492;2023-09-30T13:48:39;21.60;99.90
64689;DHT22;62504;46.070;14.492;2023-09-30T13:51:09;21.60;99.90
64689;DHT22;62504;46.070;14.492;2023-09-30T13:53:36;21.50;99.90
64689;DHT22;62504;46.070;14.492;2023-09-30T13:56:06;21.50;99.90
64689;DHT22;62504;46.070;14.492;2023-09-30T13:58:32;21.50;99.90
64689;DHT22;62504;46.070;14.492;2023-09-30T14:00:58;21.40;99.90
64689;DHT22;62504;46.070;14.492;2023-09-30T14:03:24;21.40;99.90
64689;DHT22;62504;46.070;14.492;2023-09-30T14:05:50;21.50;99.90
64689;DHT22;62504;46.070;14.492;2023-09-30T14:08:16;21.40;99.90
64689;DHT22;62504;46.070;14.492;2023-09-30T14:10:42;21.50;99.90
64689;DHT22;62504;46.070;14.492;2023-09-30T14:13:10;21.50;99.90
64689;DHT22;62504;46.070;14.492;2023-09-30T14:15:36;21.50;99.90
64689;DHT22;62504;46.070;14.492;2023-09-30T14:18:02;21.50;99.90
64689;DHT22;62504;46.070;14.492;2023-09-30T14:20:28;21.50;99.90
64689;DHT22;62504;46.070;14.492;2023-09-30T14:22:54;21.50;99.90
64689;DHT22;62504;46.070;14.492;2023-09-30T14:25:22;21.40;99.90
64689;DHT22;62504;46.070;14.492;2023-09-30T14:27:49;21.40;99.90
64689;DHT22;62504;46.070;14.492;2023-09-30T14:30:15;21.40;99.90
64689;DHT22;62504;46.070;14.492;2023-09-30T14:32:41;21.40;99.90
64689;DHT22;62504;46.070;14.492;2023-09-30T14:35:08;21.30;99.90
64689;DHT22;62504;46.070;14.492;2023-09-30T14:37:35;21.30;99.90
64689;DHT22;62504;46.070;14.492;2023-09-30T14:40:02;21.30;99.90
64689;DHT22;62504;46.070;14.492;2023-09-30T14:42:31;21.30;99.90
64689;DHT22;62504;46.070;14.492;2023-09-30T14:44:57;21.30;99.90
64689;DHT22;62504;46.070;14.492;2023-09-30T14:47:23;21.30;99.90
64689;DHT22;62504;46.070;14.492;2023-09-30T14:49:49;21.30;99.90
64689;DHT22;62504;46.070;14.492;2023-09-30T14:52:14;21.30;99.90
64689;DHT22;62504;46.070;14.492;2023-09-30T14:54:41;21.40;99.90
64689;DHT22;62504;46.070;14.492;2023-09-30T14:57:07;21.40;99.90
64689;DHT22;62504;46.070;14.492;2023-09-30T14:59:35;21.40;99.90
64689;DHT22;62504;46.070;14.492;2023-09-30T15:02:00;21.40;99.90
64689;DHT22;62504;46.070;14.492;2023-09-30T15:04:26;21.30;99.90
64689;DHT22;62504;46.070;14.492;2023-09-30T15:06:53;21.20;99.90
64689;DHT22;62504;46.070;14.492;2023-09-30T15:09:19;21.20;99.90
64689;DHT22;62504;46.070;14.492;2023-09-30T15:11:45;21.20;99.90
64689;DHT22;62504;46.070;14.492;2023-09-30T15:14:11;21.30;99.90
64689;DHT22;62504;46.070;14.492;2023-09-30T15:16:36;21.20;99.90
64689;DHT22;62504;46.070;14.492;2023-09-30T15:19:02;21.20;99.90
64689;DHT22;62504;46.070;14.492;2023-09-30T15:21:28;21.20;99.90
64689;DHT22;62504;46.070;14.492;2023-09-30T15:23:53;21.20;99.90
64689;DHT22;62504;46.070;14.492;2023-09-30T15:26:19;21.20;99.90
64689;DHT22;62504;46.070;14.492;2023-09-30T15:28:45;21.20;99.90
64689;DHT22;62504;46.070;14.492;2023-09-30T15:31:11;21.20;99.90
64689;DHT22;62504;46.070;14.492;2023-09-30T15:33:37;21.20;99.90